Time;durP1;ratioP1;P1;durP2;ratioP2;P2;SDS_P1;SDS_P2;PMS_P1;PMS_P2;Temp;Humidity;BMP_temperature;BMP_pressure;BME280_temperature;BME280_humidity;BME280_pressure;Samples;Min_cycle;Max_cycle;Signal;HPM_P1;HPM_P2
2022/03/29 00:01:38;;;;;;;;;;;;;;;-144.19;100.00;77524.16;4991627;28;19926;-89
2022/03/29 00:04:05;;;;;;;;;;;;;;;-144.19;100.00;77524.16;4991295;28;19953;-88
2022/03/29 00:06:35;;;;;;;;;;;;;;;-144.19;100.00;77526.13;4990926;28;19926;-89
2022/03/29 00:09:35;;;;;;;;;;;;;;;;;;;;;
2022/03/29 00:12:03;;;;;;;;;;;;;;;-144.19;100.00;77524.16;4991062;28;19989;-87
2022/03/29 00:14:35;;;;;;;;;;;;;;;-144.19;100.00;77516.28;4987270;28;20022;-88
2022/03/29 00:17:04;;;;;;;;;;;;;;;-144.19;100.00;77543.84;4986570;28;19926;-88
2022/03/29 00:19:35;;;;;;;;;;;;;;;-144.19;100.00;77569.47;4988530;28;19926;-89
2022/03/29 00:22:05;;;;;;;;;;;;;;;-144.19;100.00;77534.00;4986929;28;20007;-88
2022/03/29 00:25:19;;;;;;;;;;;;;;;-144.19;100.00;77535.97;4987519;28;19926;-88
2022/03/29 00:27:49;;;;;;;;;;;;;;;-144.19;100.00;77496.59;4985875;28;20005;-88
2022/03/29 00:30:54;;;;;;;;;;;;;;;-144.19;100.00;77504.47;4987059;28;19949;-88
2022/03/29 00:33:25;;;;;;;;;;;;;;;-144.19;100.00;77516.28;4988386;28;19926;-88
2022/03/29 00:36:11;;;;;;;;;;;;;;;-144.19;100.00;77494.63;4989227;28;19942;-90
2022/03/29 00:38:42;;;;;;;;;;;;;;;-144.19;100.00;77506.44;4989217;28;19937;-88
2022/03/29 00:41:16;;;;;;;;;;;;;;;-144.19;100.00;77524.16;4989216;28;19926;-89
2022/03/29 00:43:51;;;;;;;;;;;;;;;-144.19;100.00;77520.22;4987514;28;19929;-89
2022/03/29 00:46:22;;;;;;;;;;;;;;;-144.19;100.00;77520.22;4988510;28;19926;-89
2022/03/29 00:52:22;;;;;;;;;;;;;;;-144.19;100.00;77561.59;4968997;28;19930;-88
2022/03/29 00:54:58;;;;;;;;;;;;;;;-144.19;100.00;77553.72;4969115;28;19986;-89
2022/03/29 00:57:29;;;;;;;;;;;;;;;-144.19;100.00;77534.00;4974441;28;19926;-89
2022/03/29 01:00:01;;;;;;;;;;;;;;;-144.19;100.00;77508.41;4969003;28;19927;-89
2022/03/29 01:02:34;;;;;;;;;;;;;;;-144.19;100.00;77516.28;4968209;28;19930;-88
2022/03/29 01:05:08;;;;;;;;;;;;;;;-144.19;100.00;77500.53;4968881;28;19934;-88
2022/03/29 01:07:53;;;;;;;;;;;;;;;-144.19;100.00;77516.28;4978201;28;20215;-88
2022/03/29 01:10:43;;;;;;;;;;;;;;;-144.19;100.00;77512.34;5002631;23;19926;-84
2022/03/29 01:13:10;;;;;;;;;;;;;;;-144.19;100.00;77508.41;4990708;28;19926;-83
2022/03/29 01:15:37;;;;;;;;;;;;;;;-144.19;100.00;77528.09;4993971;28;19926;-84
2022/03/29 01:18:05;;;;;;;;;;;;;;;-144.19;100.00;77502.50;4993863;28;20020;-85
2022/03/29 01:20:32;;;;;;;;;;;;;;;-144.19;100.00;77504.47;5001038;28;20020;-84
2022/03/29 01:23:00;;;;;;;;;;;;;;;-144.19;100.00;77508.41;5010963;28;20269;-84
2022/03/29 01:25:32;;;;;;;;;;;;;;;-144.19;100.00;77496.59;5012300;28;20391;-84
2022/03/29 01:28:01;;;;;;;;;;;;;;;-144.19;100.00;77496.59;4999973;28;20041;-82
2022/03/29 01:30:27;;;;;;;;;;;;;;;-144.19;100.00;77504.47;4993518;28;19946;-83
2022/03/29 01:32:54;;;;;;;;;;;;;;;-144.19;100.00;77508.41;4992907;28;19936;-85
2022/03/29 01:35:21;;;;;;;;;;;;;;;-144.19;100.00;77490.69;4992649;28;19933;-82
2022/03/29 01:37:48;;;;;;;;;;;;;;;-144.19;100.00;77524.16;4993941;28;19925;-83
2022/03/29 01:40:16;;;;;;;;;;;;;;;-144.19;100.00;77508.41;5013024;28;20411;-85
2022/03/29 01:42:49;;;;;;;;;;;;;;;-144.19;100.00;77504.47;5012006;28;19925;-85
2022/03/29 01:45:16;;;;;;;;;;;;;;;-144.19;100.00;77476.91;5012155;28;20045;-83
2022/03/29 01:47:42;;;;;;;;;;;;;;;-144.19;100.00;77476.91;5005783;28;20380;-83
2022/03/29 01:50:10;;;;;;;;;;;;;;;-144.19;100.00;77472.97;4994464;28;20307;-84
2022/03/29 01:52:40;;;;;;;;;;;;;;;-144.19;100.00;77467.06;4991976;28;19929;-82
2022/03/29 01:55:07;;;;;;;;;;;;;;;-144.19;100.00;77453.28;4992964;28;20434;-83
2022/03/29 01:57:33;;;;;;;;;;;;;;;-144.19;100.00;77453.28;5007822;28;19930;-82
2022/03/29 02:02:45;;;;;;;;;;;;;;;-144.19;100.00;77465.09;5012018;28;19965;-82
2022/03/29 02:05:12;;;;;;;;;;;;;;;-144.19;100.00;77455.25;5008444;28;19933;-82
2022/03/29 02:07:38;;;;;;;;;;;;;;;-144.19;100.00;77457.22;4993002;28;19930;-85
2022/03/29 02:10:06;;;;;;;;;;;;;;;-144.19;100.00;77471.00;4997911;28;19933;-85
2022/03/29 02:12:33;;;;;;;;;;;;;;;-144.19;100.00;77465.09;5010968;28;20311;-84
2022/03/29 02:14:59;;;;;;;;;;;;;;;-144.19;100.00;77457.22;5009285;28;19932;-82
2022/03/29 02:17:26;;;;;;;;;;;;;;;-144.19;100.00;77453.28;5011615;28;19925;-82
2022/03/29 02:19:52;;;;;;;;;;;;;;;-144.19;100.00;77437.53;5006654;28;19959;-82
2022/03/29 02:22:18;;;;;;;;;;;;;;;-144.19;100.00;77445.41;5006914;28;19926;-82
2022/03/29 02:24:45;;;;;;;;;;;;;;;-144.19;100.00;77441.47;5008332;28;20392;-82
2022/03/29 02:27:11;;;;;;;;;;;;;;;-144.19;100.00;77439.50;4992210;28;19926;-84
2022/03/29 02:29:37;;;;;;;;;;;;;;;-144.19;100.00;77437.53;4994115;28;19933;-84
2022/03/29 02:32:05;;;;;;;;;;;;;;;-144.19;100.00;77437.53;5008979;28;19956;-84
2022/03/29 02:34:32;;;;;;;;;;;;;;;-144.19;100.00;77433.59;5004270;28;19933;-83
2022/03/29 02:36:58;;;;;;;;;;;;;;;-144.19;100.00;77453.28;4997108;28;19926;-85
2022/03/29 02:39:24;;;;;;;;;;;;;;;-144.19;100.00;77449.34;4998794;28;20380;-84
2022/03/29 02:41:50;;;;;;;;;;;;;;;-144.19;100.00;77437.53;4996895;28;19945;-84
2022/03/29 02:44:17;;;;;;;;;;;;;;;-144.19;100.00;77433.59;5012891;28;19932;-84
2022/03/29 02:46:44;;;;;;;;;;;;;;;-144.19;100.00;77439.50;5013178;28;19925;-84
2022/03/29 02:49:10;;;;;;;;;;;;;;;-144.19;100.00;77429.66;5013790;28;19989;-84
2022/03/29 02:51:36;;;;;;;;;;;;;;;-144.19;100.00;77425.72;5016107;28;19925;-83
2022/03/29 02:54:03;;;;;;;;;;;;;;;-144.19;100.00;77441.47;5016481;28;20028;-84
2022/03/29 02:56:29;;;;;;;;;;;;;;;-144.19;100.00;77433.59;5018382;28;19925;-83
2022/03/29 02:58:55;;;;;;;;;;;;;;;-144.19;100.00;77421.78;5000021;28;19949;-84
2022/03/29 03:01:22;;;;;;;;;;;;;;;-144.19;100.00;77409.97;4997357;28;19941;-83
2022/03/29 03:03:48;;;;;;;;;;;;;;;-144.19;100.00;77425.72;5013498;28;20020;-83
2022/03/29 03:06:14;;;;;;;;;;;;;;;-144.19;100.00;77417.84;5001575;28;20377;-83
2022/03/29 03:08:41;;;;;;;;;;;;;;;-144.19;100.00;77437.53;5015372;28;19936;-83
2022/03/29 03:11:07;;;;;;;;;;;;;;;-144.19;100.00;77443.44;4998080;28;19926;-82
2022/03/29 03:13:35;;;;;;;;;;;;;;;-144.19;100.00;77453.28;4994970;28;19937;-82
2022/03/29 03:16:01;;;;;;;;;;;;;;;-144.19;100.00;77449.34;4998909;28;19926;-83
2022/03/29 03:18:27;;;;;;;;;;;;;;;-144.19;100.00;77455.25;5002269;28;20343;-82
2022/03/29 03:20:54;;;;;;;;;;;;;;;-144.19;100.00;77449.34;5017858;28;19945;-83
2022/03/29 03:23:20;;;;;;;;;;;;;;;-144.19;100.00;77437.53;5016196;28;19925;-82
2022/03/29 03:25:48;;;;;;;;;;;;;;;-144.19;100.00;77451.31;5016595;28;19926;-81
2022/03/29 03:28:14;;;;;;;;;;;;;;;-144.19;100.00;77467.06;5016166;28;19944;-81
2022/03/29 03:30:40;;;;;;;;;;;;;;;-144.19;100.00;77463.13;5018059;28;19926;-83
2022/03/29 03:33:06;;;;;;;;;;;;;;;-144.19;100.00;77445.41;5015770;28;19925;-83
2022/03/29 03:35:33;;;;;;;;;;;;;;;-144.19;100.00;77441.47;4999130;28;20035;-83
2022/03/29 03:37:59;;;;;;;;;;;;;;;-144.19;100.00;77445.41;4996821;28;19961;-84
2022/03/29 03:40:26;;;;;;;;;;;;;;;-144.19;100.00;77439.50;5015273;28;19933;-82
2022/03/29 03:42:52;;;;;;;;;;;;;;;-144.19;100.00;77425.72;5015715;28;19925;-83
2022/03/29 03:45:18;;;;;;;;;;;;;;;-144.19;100.00;77435.56;5016864;28;20025;-82
2022/03/29 03:47:46;;;;;;;;;;;;;;;-144.19;100.00;77451.31;5009435;28;19930;-83
2022/03/29 03:50:12;;;;;;;;;;;;;;;-144.19;100.00;77445.41;4987802;28;19930;-82
2022/03/29 03:52:38;;;;;;;;;;;;;;;-144.19;100.00;77451.31;4991260;28;19932;-82
2022/03/29 03:55:05;;;;;;;;;;;;;;;-144.19;100.00;77449.34;5004106;28;19936;-82
2022/03/29 03:57:32;;;;;;;;;;;;;;;-144.19;100.00;77465.09;4993467;28;19936;-84
2022/03/29 03:59:58;;;;;;;;;;;;;;;-144.19;100.00;77472.97;5010985;28;19930;-83
2022/03/29 04:02:24;;;;;;;;;;;;;;;-144.19;100.00;77472.97;5013595;28;19929;-82
2022/03/29 04:04:51;;;;;;;;;;;;;;;-144.19;100.00;77478.88;5012980;28;19965;-83
2022/03/29 04:07:18;;;;;;;;;;;;;;;-144.19;100.00;77465.09;5013149;28;19964;-84
2022/03/29 04:09:44;;;;;;;;;;;;;;;-144.19;100.00;77461.16;5013226;28;19936;-82
2022/03/29 04:12:10;;;;;;;;;;;;;;;-144.19;100.00;77443.44;5013849;28;19935;-82
2022/03/29 04:14:37;;;;;;;;;;;;;;;-144.19;100.00;77443.44;5012366;28;20204;-82
2022/03/29 04:17:08;;;;;;;;;;;;;;;-144.19;100.00;77429.66;5014043;28;19980;-82
2022/03/29 04:19:34;;;;;;;;;;;;;;;-144.19;100.00;77449.34;5001889;28;19929;-83
2022/03/29 04:22:00;;;;;;;;;;;;;;;-144.19;100.00;77455.25;5003968;28;19929;-82
2022/03/29 04:24:27;;;;;;;;;;;;;;;-144.19;100.00;77429.66;5012020;28;20289;-84
2022/03/29 04:26:53;;;;;;;;;;;;;;;-144.19;100.00;77453.28;5012494;28;19937;-83
2022/03/29 04:29:19;;;;;;;;;;;;;;;-144.19;100.00;77453.28;5004497;28;20411;-82
2022/03/29 04:31:45;;;;;;;;;;;;;;;-144.19;100.00;77441.47;4993568;28;20414;-82
2022/03/29 04:34:12;;;;;;;;;;;;;;;-144.19;100.00;77437.53;5002317;28;19933;-84
2022/03/29 04:36:39;;;;;;;;;;;;;;;-144.19;100.00;77433.59;4989334;28;20245;-83
2022/03/29 04:39:05;;;;;;;;;;;;;;;-144.19;100.00;77429.66;4989433;28;19932;-83
2022/03/29 04:41:31;;;;;;;;;;;;;;;-144.19;100.00;77429.66;5012179;28;19926;-82
2022/03/29 04:44:02;;;;;;;;;;;;;;;-144.19;100.00;77417.84;5010509;28;19980;-81
2022/03/29 04:46:29;;;;;;;;;;;;;;;-144.19;100.00;77417.84;5012604;28;19925;-84
2022/03/29 04:48:55;;;;;;;;;;;;;;;-144.19;100.00;77409.97;5008369;28;19949;-83
2022/03/29 04:51:21;;;;;;;;;;;;;;;-144.19;100.00;77417.84;5008236;28;19956;-84
2022/03/29 04:53:48;;;;;;;;;;;;;;;-144.19;100.00;77425.72;5009251;28;19926;-83
2022/03/29 04:56:14;;;;;;;;;;;;;;;-144.19;100.00;77429.66;4994221;28;19930;-83
2022/03/29 04:58:41;;;;;;;;;;;;;;;-144.19;100.00;77425.72;4993703;28;20440;-82
2022/03/29 05:01:07;;;;;;;;;;;;;;;-144.19;100.00;77408.00;4993442;28;19933;-83
2022/03/29 05:03:34;;;;;;;;;;;;;;;-144.19;100.00;77417.84;4990095;28;19926;-84
2022/03/29 05:06:00;;;;;;;;;;;;;;;-144.19;100.00;77425.72;4993873;28;19930;-82
2022/03/29 05:08:26;;;;;;;;;;;;;;;-144.19;100.00;77417.84;4993525;28;19929;-82
2022/03/29 05:10:53;;;;;;;;;;;;;;;-144.19;100.00;77421.78;5008254;28;19933;-83
2022/03/29 05:13:19;;;;;;;;;;;;;;;-144.19;100.00;77417.84;4992789;28;19952;-82
2022/03/29 05:15:45;;;;;;;;;;;;;;;-144.19;100.00;77413.91;4994023;28;19926;-83
2022/03/29 05:18:12;;;;;;;;;;;;;;;-144.19;100.00;77421.78;4993080;28;19993;-83
2022/03/29 05:20:38;;;;;;;;;;;;;;;-144.19;100.00;77429.66;5007394;28;20300;-83
2022/03/29 05:23:08;;;;;;;;;;;;;;;-144.19;100.00;77431.63;4992866;28;20153;-85
2022/03/29 05:25:37;;;;;;;;;;;;;;;-144.19;100.00;77437.53;4993549;28;20036;-85
2022/03/29 05:28:03;;;;;;;;;;;;;;;-144.19;100.00;77431.63;4992067;28;19926;-84
2022/03/29 05:30:30;;;;;;;;;;;;;;;-144.19;100.00;77427.69;4992857;28;20395;-84
2022/03/29 05:33:00;;;;;;;;;;;;;;;-144.19;100.00;77427.69;4992325;28;19933;-84
2022/03/29 05:35:29;;;;;;;;;;;;;;;-144.19;100.00;77429.66;4993179;28;19934;-84
2022/03/29 05:37:57;;;;;;;;;;;;;;;-144.19;100.00;77417.84;4992636;28;19936;-85
2022/03/29 05:40:25;;;;;;;;;;;;;;;-144.19;100.00;77417.84;4991668;28;19948;-84
2022/03/29 05:42:52;;;;;;;;;;;;;;;-144.19;100.00;77431.63;4992155;28;19932;-84
2022/03/29 05:45:18;;;;;;;;;;;;;;;-144.19;100.00;77417.84;4993201;28;19926;-84
2022/03/29 05:50:30;;;;;;;;;;;;;;;-144.19;100.00;77433.59;4992821;28;20423;-85
2022/03/29 05:52:57;;;;;;;;;;;;;;;-144.19;100.00;77431.63;4991353;28;19925;-84
2022/03/29 05:55:24;;;;;;;;;;;;;;;-144.19;100.00;77417.84;4992706;28;19926;-82
2022/03/29 05:57:51;;;;;;;;;;;;;;;-144.19;100.00;77417.84;4992457;28;19926;-84
2022/03/29 06:00:21;;;;;;;;;;;;;;;-144.19;100.00;77421.78;4989568;28;19937;-84
2022/03/29 06:02:47;;;;;;;;;;;;;;;-144.19;100.00;77415.88;4989304;28;19945;-84
2022/03/29 06:05:13;;;;;;;;;;;;;;;-144.19;100.00;77421.78;4992323;28;19926;-84
2022/03/29 06:07:40;;;;;;;;;;;;;;;-144.19;100.00;77413.91;5002932;28;20463;-83
2022/03/29 06:10:07;;;;;;;;;;;;;;;-144.19;100.00;77423.75;4998208;28;19926;-84
2022/03/29 06:12:34;;;;;;;;;;;;;;;-144.19;100.00;77406.03;4990680;28;20376;-83
2022/03/29 06:15:03;;;;;;;;;;;;;;;-144.19;100.00;77411.94;4991817;28;20396;-83
2022/03/29 06:17:30;;;;;;;;;;;;;;;-144.19;100.00;77404.06;4991234;28;19936;-82
2022/03/29 06:19:56;;;;;;;;;;;;;;;-144.19;100.00;77402.09;4991912;28;20423;-82
2022/03/29 06:22:22;;;;;;;;;;;;;;;-144.19;100.00;77394.22;4991764;28;19926;-83
2022/03/29 06:24:49;;;;;;;;;;;;;;;-144.19;100.00;77402.09;4992175;28;19932;-82
2022/03/29 06:27:16;;;;;;;;;;;;;;;-144.19;100.00;77402.09;4990684;28;19926;-83
2022/03/29 06:29:42;;;;;;;;;;;;;;;-144.19;100.00;77398.16;4991763;28;19936;-82
2022/03/29 06:32:14;;;;;;;;;;;;;;;-144.19;100.00;77394.22;4991166;28;20444;-83
2022/03/29 06:34:41;;;;;;;;;;;;;;;-144.19;100.00;77396.19;4991558;28;19937;-83
2022/03/29 06:37:09;;;;;;;;;;;;;;;-144.19;100.00;77386.34;4991631;28;19925;-82
2022/03/29 06:39:36;;;;;;;;;;;;;;;-144.19;100.00;77382.41;4991255;28;19933;-83
2022/03/29 06:42:02;;;;;;;;;;;;;;;-144.19;100.00;77402.09;4989433;28;19937;-84
2022/03/29 06:44:33;;;;;;;;;;;;;;;-144.19;100.00;77411.94;4990570;28;19925;-86
2022/03/29 06:47:02;;;;;;;;;;;;;;;-144.19;100.00;77392.25;4989952;28;19933;-84
2022/03/29 06:49:29;;;;;;;;;;;;;;;-144.19;100.00;77390.28;4990052;28;19933;-86
2022/03/29 06:51:55;;;;;;;;;;;;;;;-144.19;100.00;77382.41;4986863;28;20274;-85
2022/03/29 06:54:22;;;;;;;;;;;;;;;-144.19;100.00;77376.50;4989175;28;19925;-84
2022/03/29 06:56:48;;;;;;;;;;;;;;;-144.19;100.00;77358.78;4991435;28;19930;-84
2022/03/29 06:59:14;;;;;;;;;;;;;;;-144.19;100.00;77364.69;5004089;28;19933;-83
2022/03/29 07:01:40;;;;;;;;;;;;;;;-144.19;100.00;77350.91;5005198;28;19948;-82
2022/03/29 07:04:08;;;;;;;;;;;;;;;-144.19;100.00;77339.09;5005643;28;19925;-84
2022/03/29 07:06:35;;;;;;;;;;;;;;;-144.19;100.00;77343.03;4990391;28;20328;-84
2022/03/29 07:12:08;;;;;;;;;;;;;;;-144.19;100.00;77341.06;5025242;23;19930;-84
2022/03/29 07:14:34;;;;;;;;;;;;;;;-144.19;100.00;77339.09;5027141;28;20016;-86
2022/03/29 07:17:01;;;;;;;;;;;;;;;-144.19;100.00;77311.53;5026575;28;19926;-87
2022/03/29 07:19:27;;;;;;;;;;;;;;;-144.19;100.00;77339.09;5012335;28;19944;-86
2022/03/29 07:21:54;;;;;;;;;;;;;;;-144.19;100.00;77329.25;5013101;28;19925;-85
2022/03/29 07:24:21;;;;;;;;;;;;;;;-144.19;100.00;77346.97;5031357;28;19926;-88
2022/03/29 07:26:47;;;;;;;;;;;;;;;-144.19;100.00;77297.75;5016314;28;19936;-86
2022/03/29 07:29:16;;;;;;;;;;;;;;;-144.19;100.00;77327.28;5016332;28;19926;-89
2022/03/29 07:31:42;;;;;;;;;;;;;;;-144.19;100.00;77293.81;5015137;28;19933;-87
2022/03/29 07:34:08;;;;;;;;;;;;;;;-144.19;100.00;77295.78;5014800;28;19929;-85
2022/03/29 07:36:35;;;;;;;;;;;;;;;-144.19;100.00;77287.91;5015596;28;20380;-84
2022/03/29 07:39:01;;;;;;;;;;;;;;;-144.19;100.00;77283.97;5015104;28;20414;-83
2022/03/29 07:41:28;;;;;;;;;;;;;;;-144.19;100.00;77276.09;5014640;28;20337;-85
2022/03/29 07:43:55;;;;;;;;;;;;;;;-144.19;100.00;77278.06;5013593;28;19965;-85
2022/03/29 07:46:21;;;;;;;;;;;;;;;-144.19;100.00;77246.56;5015580;28;20015;-81
2022/03/29 07:48:47;;;;;;;;;;;;;;;-144.19;100.00;77256.41;5015325;28;20016;-84
2022/03/29 07:51:34;;;;;;;;;;;;;;;-144.19;100.00;77301.69;5014881;28;19932;-83
2022/03/29 07:54:03;;;;;;;;;;;;;;;-144.19;100.00;77280.03;5014172;28;19932;-86
2022/03/29 07:56:29;;;;;;;;;;;;;;;-144.19;100.00;77260.34;5013936;28;19926;-83
2022/03/29 07:58:56;;;;;;;;;;;;;;;-144.19;100.00;77240.66;5012699;28;20379;-84
2022/03/29 08:01:22;;;;;;;;;;;;;;;-144.19;100.00;77228.84;5012573;28;19933;-85
2022/03/29 08:03:49;;;;;;;;;;;;;;;-144.19;100.00;77224.91;5012379;28;19930;-84
2022/03/29 08:06:15;;;;;;;;;;;;;;;-144.19;100.00;77252.47;5014735;28;19991;-85
2022/03/29 08:08:42;;;;;;;;;;;;;;;-144.19;100.00;77211.13;5014531;28;19925;-88
2022/03/29 08:11:08;;;;;;;;;;;;;;;-144.19;100.00;77167.81;5012490;28;19925;-86
2022/03/29 08:13:34;;;;;;;;;;;;;;;-144.19;100.00;77205.22;5011682;28;19926;-86
2022/03/29 08:16:04;;;;;;;;;;;;;;;-144.19;100.00;77189.47;5013571;28;20383;-85
2022/03/29 08:18:31;;;;;;;;;;;;;;;-144.19;100.00;77169.78;5012602;28;19936;-85
2022/03/29 08:20:58;;;;;;;;;;;;;;;-144.19;100.00;77193.41;5013899;28;19995;-86
2022/03/29 08:23:25;;;;;;;;;;;;;;;-144.19;100.00;77207.19;5011778;28;19968;-86
2022/03/29 08:25:52;;;;;;;;;;;;;;;-144.19;100.00;77228.84;5013573;28;19925;-85
2022/03/29 08:28:19;;;;;;;;;;;;;;;-144.19;100.00;77220.97;5012693;28;20028;-84
2022/03/29 08:30:46;;;;;;;;;;;;;;;-144.19;100.00;77181.59;5014240;28;19930;-87
2022/03/29 08:33:12;;;;;;;;;;;;;;;-144.19;100.00;77171.75;5012507;28;20499;-83
2022/03/29 08:35:39;;;;;;;;;;;;;;;-144.19;100.00;77167.81;5013125;28;20419;-84
2022/03/29 08:38:06;;;;;;;;;;;;;;;-144.19;100.00;77142.22;5012202;28;19925;-84
2022/03/29 08:40:54;;;;;;;;;;;;;;;-144.19;100.00;77098.91;5012735;28;19926;-86
2022/03/29 08:43:20;;;;;;;;;;;;;;;-144.19;100.00;77093.00;5013066;28;20024;-85
2022/03/29 08:45:48;;;;;;;;;;;;;;;-144.19;100.00;77098.91;5014210;28;19932;-84
2022/03/29 08:48:14;;;;;;;;;;;;;;;-144.19;100.00;77071.34;5012283;28;19931;-86
2022/03/29 08:50:41;;;;;;;;;;;;;;;-144.19;100.00;77039.84;5044933;28;20372;-87
2022/03/29 08:53:08;;;;;;;;;;;;;;;-144.19;100.00;77063.47;5011597;28;20230;-85
2022/03/29 08:55:35;;;;;;;;;;;;;;;-144.19;100.00;77075.28;5009079;28;19925;-84
2022/03/29 08:58:01;;;;;;;;;;;;;;;-144.19;100.00;77077.25;5022375;28;20461;-85
2022/03/29 09:00:27;;;;;;;;;;;;;;;-144.19;100.00;77083.16;5012979;28;19932;-83
2022/03/29 09:02:54;;;;;;;;;;;;;;;-144.19;100.00;77083.16;5012052;28;19925;-84
2022/03/29 09:05:22;;;;;;;;;;;;;;;-144.19;100.00;77077.25;5013819;28;20284;-85
2022/03/29 09:07:49;;;;;;;;;;;;;;;-144.19;100.00;77059.53;5012596;28;20016;-86
2022/03/29 09:10:16;;;;;;;;;;;;;;;-144.19;100.00;77059.53;5012836;28;19932;-82
2022/03/29 09:12:43;;;;;;;;;;;;;;;-144.19;100.00;77045.75;5011602;28;19972;-83
2022/03/29 09:15:09;;;;;;;;;;;;;;;-144.19;100.00;77114.66;5011991;28;19944;-83
2022/03/29 09:17:39;;;;;;;;;;;;;;;-144.19;100.00;77055.59;5028515;28;20105;-84
2022/03/29 09:20:07;;;;;;;;;;;;;;;-144.19;100.00;77000.47;5012603;28;20436;-86
2022/03/29 09:22:35;;;;;;;;;;;;;;;-144.19;100.00;76957.19;5014762;28;19932;-86
2022/03/29 09:25:02;;;;;;;;;;;;;;;-144.19;100.00;76929.63;5012557;28;19934;-84
2022/03/29 09:27:29;;;;;;;;;;;;;;;-144.19;100.00;76880.41;5011228;28;19932;-84
2022/03/29 09:30:12;;;;;;;;;;;;;;;-144.19;100.00;76868.59;5012393;28;19929;-84
2022/03/29 09:32:54;;;;;;;;;;;;;;;-144.19;100.00;76868.59;5009421;28;19925;-83
2022/03/29 09:35:21;;;;;;;;;;;;;;;-144.19;100.00;76870.56;5011384;28;19964;-84
2022/03/29 09:37:48;;;;;;;;;;;;;;;-144.19;100.00;76860.72;5011640;28;20399;-83
2022/03/29 09:40:15;;;;;;;;;;;;;;;-144.19;100.00;76811.50;5010861;28;19968;-87
2022/03/29 09:42:41;;;;;;;;;;;;;;;-144.19;100.00;76882.38;5009540;28;19964;-86
2022/03/29 09:45:08;;;;;;;;;;;;;;;-144.19;100.00;76858.75;5043462;28;19956;-84
2022/03/29 09:47:35;;;;;;;;;;;;;;;-144.19;100.00;76909.94;5012099;28;19949;-84
2022/03/29 09:50:11;;;;;;;;;;;;;;;-144.19;100.00;76972.94;5012542;28;19926;-87
2022/03/29 09:52:37;;;;;;;;;;;;;;;-144.19;100.00;76949.31;5043873;28;19929;-86
2022/03/29 09:55:15;;;;;;;;;;;;;;;-144.19;100.00;76917.81;5044361;28;20307;-86
2022/03/29 09:57:51;;;;;;;;;;;;;;;-144.19;100.00;76886.31;5040683;28;20307;-87
2022/03/29 10:00:19;;;;;;;;;;;;;;;-144.19;100.00;76939.47;5010741;28;20374;-83
2022/03/29 10:02:46;;;;;;;;;;;;;;;-144.19;100.00;76888.28;5010476;28;19932;-86
2022/03/29 10:05:15;;;;;;;;;;;;;;;-144.19;100.00;76898.13;5012659;28;19933;-86
2022/03/29 10:07:43;;;;;;;;;;;;;;;-144.19;100.00;76843.00;5027305;28;19926;-85
2022/03/29 10:10:10;;;;;;;;;;;;;;;-144.19;100.00;76862.69;5010842;28;20299;-86
2022/03/29 10:12:37;;;;;;;;;;;;;;;-144.19;100.00;76850.88;5009620;28;19929;-85
2022/03/29 10:15:23;;;;;;;;;;;;;;;-144.19;100.00;76839.06;5011460;28;19952;-85
2022/03/29 10:17:54;;;;;;;;;;;;;;;-144.19;100.00;76825.28;5010770;28;19975;-85
2022/03/29 10:20:20;;;;;;;;;;;;;;;-144.19;100.00;76764.25;5009883;28;19929;-84
2022/03/29 10:22:47;;;;;;;;;;;;;;;-144.19;100.00;76699.28;5010691;28;19932;-84
2022/03/29 10:25:13;;;;;;;;;;;;;;;-144.19;100.00;76610.72;5010376;28;20308;-84
2022/03/29 10:27:40;;;;;;;;;;;;;;;-144.19;100.00;76622.53;5043225;28;20013;-84
2022/03/29 10:30:06;;;;;;;;;;;;;;;-144.19;100.00;76626.47;5011866;28;19925;-83
2022/03/29 10:32:33;;;;;;;;;;;;;;;-144.19;100.00;76697.31;5010368;28;20354;-87
2022/03/29 10:35:08;;;;;;;;;;;;;;;-144.19;100.00;76799.69;5011058;28;19933;-85
2022/03/29 10:37:54;;;;;;;;;;;;;;;-144.19;100.00;76736.69;5010944;28;19948;-85
2022/03/29 10:40:34;;;;;;;;;;;;;;;-144.19;100.00;76760.31;5011396;28;19926;-82
2022/03/29 10:43:19;;;;;;;;;;;;;;;-144.19;100.00;76709.13;5006769;28;19929;-82
2022/03/29 10:45:45;;;;;;;;;;;;;;;-144.19;100.00;76606.78;5011435;28;19932;-84
2022/03/29 10:48:13;;;;;;;;;;;;;;;-144.19;100.00;76598.91;5012752;28;19926;-85
2022/03/29 10:50:56;;;;;;;;;;;;;;;-144.19;100.00;76504.41;5010940;28;20392;-84
2022/03/29 10:53:31;;;;;;;;;;;;;;;-144.19;100.00;76449.31;5011126;28;20376;-87
2022/03/29 10:56:14;;;;;;;;;;;;;;;-144.19;100.00;76411.91;5013471;28;19956;-83
2022/03/29 10:58:59;;;;;;;;;;;;;;;-144.19;100.00;76571.34;5014203;28;19926;-87
2022/03/29 11:01:26;;;;;;;;;;;;;;;-144.19;100.00;76522.13;5015818;28;20360;-86
2022/03/29 11:04:00;;;;;;;;;;;;;;;-144.19;100.00;76506.38;5013536;28;19933;-85
2022/03/29 11:06:26;;;;;;;;;;;;;;;-144.19;100.00;76553.63;5012437;28;19980;-84
2022/03/29 11:09:04;;;;;;;;;;;;;;;-144.19;100.00;76467.03;5014231;28;20395;-87
2022/03/29 11:11:39;;;;;;;;;;;;;;;-144.19;100.00;76539.84;5013536;28;19953;-84
2022/03/29 11:14:24;;;;;;;;;;;;;;;-144.19;100.00;76528.03;5014822;28;19932;-84
2022/03/29 11:16:50;;;;;;;;;;;;;;;-144.19;100.00;76437.50;5015283;28;20257;-85
2022/03/29 11:19:35;;;;;;;;;;;;;;;-144.19;100.00;76425.69;5013915;28;19936;-86
2022/03/29 11:22:21;;;;;;;;;;;;;;;-144.19;100.00;76394.19;5012939;28;19925;-85
2022/03/29 11:24:49;;;;;;;;;;;;;;;-144.19;99.18;76406.00;5013771;28;20016;-82
2022/03/29 11:27:22;;;;;;;;;;;;;;;-144.19;98.23;76392.22;5013061;28;19934;-86
2022/03/29 11:29:52;;;;;;;;;;;;;;;-144.19;99.91;76459.16;5014718;28;20375;-86
2022/03/29 11:32:19;;;;;;;;;;;;;;;-144.19;99.23;76465.06;5014597;28;19932;-84
2022/03/29 11:34:45;;;;;;;;;;;;;;;-144.19;98.45;76516.22;5013984;28;19931;-85
2022/03/29 11:37:28;;;;;;;;;;;;;;;-144.19;99.98;76563.47;5014920;28;20319;-85
2022/03/29 11:39:54;;;;;;;;;;;;;;;-144.19;100.00;76508.34;5015321;28;19932;-85
2022/03/29 11:42:21;;;;;;;;;;;;;;;-144.19;100.00;76465.06;5014766;28;19952;-81
2022/03/29 11:44:48;;;;;;;;;;;;;;;-144.19;98.65;76502.44;5014637;28;19926;-82
2022/03/29 11:47:14;;;;;;;;;;;;;;;-144.19;100.00;76569.38;5015091;28;19925;-82
2022/03/29 11:49:41;;;;;;;;;;;;;;;-144.19;98.62;76557.56;5022935;28;19940;-87
2022/03/29 11:52:11;;;;;;;;;;;;;;;-144.19;100.00;76476.88;5040427;28;20023;-85
2022/03/29 11:54:38;;;;;;;;;;;;;;;-144.19;100.00;76285.94;5034348;28;19940;-84
2022/03/29 11:57:14;;;;;;;;;;;;;;;-144.19;85.04;76323.34;5048497;28;19960;-85
2022/03/29 11:59:42;;;;;;;;;;;;;;;-144.19;88.78;76272.16;5013325;28;19973;-83
2022/03/29 12:02:09;;;;;;;;;;;;;;;-144.19;80.50;76266.25;5013977;28;19925;-84
2022/03/29 12:04:39;;;;;;;;;;;;;;;-144.19;84.83;76315.47;5013319;28;19926;-87
2022/03/29 12:07:06;;;;;;;;;;;;;;;-144.19;86.96;76248.53;5014897;28;20024;-89
2022/03/29 12:09:32;;;;;;;;;;;;;;;-144.19;86.36;76128.47;5013080;28;19926;-85
2022/03/29 12:12:00;;;;;;;;;;;;;;;-144.19;80.30;76100.94;5013051;28;20380;-85
2022/03/29 12:14:27;;;;;;;;;;;;;;;-144.19;77.60;76150.13;5012363;28;20380;-85
2022/03/29 12:16:54;;;;;;;;;;;;;;;-144.19;77.79;76232.78;5015102;28;20323;-83
2022/03/29 12:19:22;;;;;;;;;;;;;;;-144.19;81.82;76193.44;5021020;28;19952;-85
2022/03/29 12:21:50;;;;;;;;;;;;;;;-144.19;80.11;76398.13;5014793;28;19930;-85
2022/03/29 12:24:24;;;;;;;;;;;;;;;-144.19;85.51;76291.84;5015187;28;19957;-84
2022/03/29 12:26:52;;;;;;;;;;;;;;;-144.19;82.32;76264.28;5013539;28;19936;-83
2022/03/29 12:29:20;;;;;;;;;;;;;;;-144.19;80.01;76258.38;5026293;28;20423;-86
2022/03/29 12:31:48;;;;;;;;;;;;;;;-144.19;83.29;76272.16;5049866;28;19925;-86
2022/03/29 12:34:19;;;;;;;;;;;;;;;-144.19;79.74;76291.84;5039739;28;19934;-84
2022/03/29 12:36:51;;;;;;;;;;;;;;;-144.19;83.60;76215.09;5035383;28;19933;-84
2022/03/29 12:39:18;;;;;;;;;;;;;;;-144.19;80.13;76209.19;5050318;28;19925;-82